createdAt,value
2019-06-15T00:00:16.992Z,32.70
2019-06-15T00:00:50.815Z,33.28
2019-06-15T00:01:23.923Z,34.35
2019-06-15T00:01:58.197Z,40.05
2019-06-15T00:02:31.130Z,42.38
2019-06-15T00:03:04.129Z,53.95
2019-06-15T00:03:38.294Z,49.77
2019-06-15T00:04:11.290Z,43.68
2019-06-15T00:04:44.175Z,37.42
2019-06-15T00:05:17.167Z,42.55
2019-06-15T00:05:50.227Z,47.85
2019-06-15T00:06:23.225Z,42.23
2019-06-15T00:06:56.301Z,42.75
2019-06-15T00:07:30.313Z,51.65
2019-06-15T00:08:04.972Z,46.70
2019-06-15T00:08:38.073Z,57.25
2019-06-15T00:09:11.110Z,58.55
2019-06-15T00:09:44.016Z,47.83
2019-06-15T00:10:17.143Z,47.85
2019-06-15T00:10:50.277Z,63.20
2019-06-15T00:11:25.346Z,49.55
2019-06-15T00:11:58.416Z,41.60
2019-06-15T00:12:31.542Z,40.92
2019-06-15T00:13:04.615Z,37.95
2019-06-15T00:13:37.609Z,37.40
2019-06-15T00:14:10.755Z,39.23
2019-06-15T00:14:43.562Z,40.20
2019-06-15T00:15:16.495Z,38.50
2019-06-15T00:15:49.444Z,38.50
2019-06-15T00:16:22.446Z,35.70
2019-06-15T00:16:55.531Z,36.13
2019-06-15T00:17:28.524Z,36.88
2019-06-15T00:18:01.655Z,35.68
2019-06-15T00:18:34.585Z,35.20
2019-06-15T00:19:08.757Z,33.45
2019-06-15T00:19:41.684Z,34.05
2019-06-15T00:20:15.747Z,33.85
2019-06-15T00:20:48.644Z,34.57
2019-06-15T00:21:21.633Z,35.65
2019-06-15T00:21:54.514Z,35.70
2019-06-15T00:22:27.503Z,34.20
2019-06-15T00:23:00.507Z,35.20
2019-06-15T00:23:33.637Z,34.80
2019-06-15T00:24:06.558Z,34.58
2019-06-15T00:24:39.385Z,33.05
2019-06-15T00:25:12.735Z,32.48
2019-06-15T00:25:45.820Z,33.45
2019-06-15T00:26:18.751Z,33.38
2019-06-15T00:26:51.684Z,33.30
2019-06-15T00:27:24.773Z,35.60
2019-06-15T00:27:57.732Z,34.55
2019-06-15T00:28:30.908Z,34.53
2019-06-15T00:29:04.935Z,35.43
2019-06-15T00:29:37.910Z,45.15
2019-06-15T00:30:11.099Z,41.35
2019-06-15T00:30:45.481Z,39.18
2019-06-15T00:31:18.519Z,38.67
2019-06-15T00:31:51.623Z,37.63
2019-06-15T00:32:24.923Z,34.20
2019-06-15T00:32:59.518Z,34.38
2019-06-15T00:33:32.567Z,33.78
2019-06-15T00:34:07.917Z,33.48
2019-06-15T00:34:41.798Z,32.80
2019-06-15T00:35:14.980Z,33.10
2019-06-15T00:35:49.450Z,33.85
2019-06-15T00:36:24.124Z,33.48
2019-06-15T00:36:57.260Z,32.98
2019-06-15T00:37:31.696Z,35.43
2019-06-15T00:38:04.539Z,35.25
2019-06-15T00:38:37.517Z,35.45
2019-06-15T00:39:10.487Z,35.45
2019-06-15T00:39:45.202Z,34.65
2019-06-15T00:40:18.368Z,34.13
2019-06-15T00:40:51.454Z,33.83
2019-06-15T00:41:25.513Z,33.15
2019-06-15T00:41:58.481Z,32.40
2019-06-15T00:42:31.625Z,32.23
2019-06-15T00:43:04.689Z,32.50
2019-06-15T00:43:37.564Z,32.45
2019-06-15T00:44:10.728Z,32.17
2019-06-15T00:44:43.611Z,32.00
2019-06-15T00:45:16.802Z,32.33
2019-06-15T00:45:50.142Z,32.03
2019-06-15T00:46:23.273Z,32.45
2019-06-15T00:46:56.129Z,31.93
2019-06-15T00:47:29.222Z,31.68
2019-06-15T00:48:02.440Z,31.87
2019-06-15T00:48:36.465Z,32.00
2019-06-15T00:49:09.636Z,31.90
2019-06-15T00:49:42.596Z,31.82
2019-06-15T00:50:16.165Z,31.90
2019-06-15T00:50:49.123Z,32.00
2019-06-15T00:51:22.232Z,31.82
2019-06-15T00:51:55.281Z,31.80
2019-06-15T00:52:28.236Z,31.70
2019-06-15T00:53:01.169Z,31.68
2019-06-15T00:53:34.238Z,31.73
2019-06-15T00:54:07.143Z,32.10
2019-06-15T00:54:50.088Z,32.10
2019-06-15T00:55:15.792Z,31.70
2019-06-15T00:55:50.398Z,31.62
2019-06-15T00:56:23.529Z,31.70
2019-06-15T00:56:57.774Z,31.80
2019-06-15T00:57:30.931Z,31.60
2019-06-15T00:58:05.171Z,31.60
2019-06-15T00:58:39.819Z,31.60
2019-06-15T00:59:12.905Z,31.77
2019-06-15T00:59:45.975Z,31.77
2019-06-15T01:00:19.106Z,31.45
2019-06-15T01:00:52.040Z,31.50
2019-06-15T01:01:25.068Z,31.87
2019-06-15T01:01:58.199Z,31.33
2019-06-15T01:02:31.150Z,31.27
2019-06-15T01:03:04.289Z,31.40
2019-06-15T01:03:37.265Z,31.37
2019-06-15T01:04:10.211Z,31.30
2019-06-15T01:04:43.190Z,31.70
2019-06-15T01:05:16.268Z,31.52
2019-06-15T01:05:49.212Z,31.07
2019-06-15T01:06:22.359Z,31.60
2019-06-15T01:06:55.458Z,31.35
2019-06-15T01:07:28.390Z,31.50
2019-06-15T01:08:01.348Z,31.20
2019-06-15T01:08:34.205Z,31.40
2019-06-15T01:09:07.251Z,31.23
2019-06-15T01:09:40.304Z,31.20
2019-06-15T01:10:14.080Z,31.17
2019-06-15T01:10:47.157Z,31.33
2019-06-15T01:11:20.133Z,31.07
2019-06-15T01:11:54.667Z,31.17
2019-06-15T01:12:27.956Z,31.10
2019-06-15T01:13:01.232Z,31.40
2019-06-15T01:13:34.250Z,31.07
2019-06-15T01:14:07.422Z,31.20
2019-06-15T01:14:40.299Z,31.30
2019-06-15T01:15:13.658Z,31.50
2019-06-15T01:15:46.938Z,31.25
2019-06-15T01:16:21.514Z,31.40
2019-06-15T01:16:54.459Z,31.07
2019-06-15T01:17:27.586Z,31.05
2019-06-15T01:18:01.390Z,31.05
2019-06-15T01:18:34.535Z,31.10
2019-06-15T01:19:09.292Z,31.00
2019-06-15T01:19:42.257Z,31.10
2019-06-15T01:20:15.647Z,31.10
2019-06-15T01:20:48.764Z,31.97
2019-06-15T01:21:21.867Z,31.20
2019-06-15T01:21:54.994Z,31.27
2019-06-15T01:22:28.034Z,31.30
2019-06-15T01:23:01.160Z,31.30
2019-06-15T01:23:33.999Z,31.50
2019-06-15T01:24:07.136Z,31.50
2019-06-15T01:24:40.143Z,31.90
2019-06-15T01:25:13.237Z,31.60
2019-06-15T01:25:46.288Z,32.17
2019-06-15T01:26:20.844Z,31.77
2019-06-15T01:26:53.791Z,31.80
2019-06-15T01:27:26.813Z,32.00
2019-06-15T01:27:59.950Z,32.08
2019-06-15T01:28:32.955Z,32.30
2019-06-15T01:29:05.977Z,32.23
2019-06-15T01:29:39.082Z,31.93
2019-06-15T01:30:12.839Z,32.05
2019-06-15T01:30:46.420Z,31.95
2019-06-15T01:31:19.428Z,32.42
2019-06-15T01:31:54.090Z,32.15
2019-06-15T01:32:27.044Z,32.35
2019-06-15T01:33:00.205Z,31.95
2019-06-15T01:33:33.033Z,31.80
2019-06-15T01:34:06.210Z,31.93
2019-06-15T01:34:39.209Z,32.28
2019-06-15T01:35:12.611Z,32.40
2019-06-15T01:35:45.629Z,32.13
2019-06-15T01:36:18.771Z,32.28
2019-06-15T01:36:51.708Z,32.45
2019-06-15T01:37:25.158Z,32.15
2019-06-15T01:37:58.064Z,32.45
2019-06-15T01:38:31.095Z,32.20
2019-06-15T01:39:04.914Z,32.30
2019-06-15T01:39:38.336Z,32.58
2019-06-15T01:40:11.768Z,32.40
2019-06-15T01:40:44.850Z,32.38
2019-06-15T01:41:17.971Z,32.75
2019-06-15T01:41:51.094Z,32.25
2019-06-15T01:42:24.132Z,32.40
2019-06-15T01:42:57.155Z,32.60
2019-06-15T01:43:30.154Z,32.55
2019-06-15T01:44:03.318Z,32.60
2019-06-15T01:44:36.247Z,32.30
2019-06-15T01:45:09.602Z,32.40
2019-06-15T01:45:42.503Z,32.75
2019-06-15T01:46:15.549Z,32.58
2019-06-15T01:46:48.448Z,32.60
2019-06-15T01:47:21.511Z,32.50
2019-06-15T01:47:54.872Z,32.50
2019-06-15T01:48:28.059Z,32.75
2019-06-15T01:49:01.142Z,32.50
2019-06-15T01:49:34.328Z,32.80
2019-06-15T01:50:09.084Z,32.70
2019-06-15T01:50:42.225Z,32.85
2019-06-15T01:51:15.267Z,32.90
2019-06-15T01:51:48.203Z,32.73
2019-06-15T01:52:21.132Z,32.75
2019-06-15T01:52:54.066Z,32.70
2019-06-15T01:53:27.990Z,33.33
2019-06-15T01:54:01.436Z,32.63
2019-06-15T01:54:34.352Z,32.70
2019-06-15T01:55:19.931Z,32.95
2019-06-15T01:55:42.708Z,32.50
2019-06-15T01:56:15.867Z,32.70
2019-06-15T01:56:48.783Z,32.83
2019-06-15T01:57:21.737Z,32.80
2019-06-15T01:57:54.746Z,33.30
2019-06-15T01:58:27.822Z,32.55
2019-06-15T01:59:00.848Z,32.98
2019-06-15T01:59:33.986Z,33.10
2019-06-15T02:00:09.419Z,33.10
2019-06-15T02:00:43.648Z,33.30
2019-06-15T02:01:16.690Z,33.33
2019-06-15T02:01:49.935Z,33.33
2019-06-15T02:02:22.928Z,33.13
2019-06-15T02:02:56.031Z,33.00
2019-06-15T02:03:28.974Z,33.40
2019-06-15T02:04:01.863Z,33.10
2019-06-15T02:04:34.861Z,33.00
2019-06-15T02:05:08.833Z,33.18
2019-06-15T02:05:41.835Z,33.33
2019-06-15T02:06:14.834Z,33.18
2019-06-15T02:06:47.881Z,33.20
2019-06-15T02:07:20.891Z,33.10
2019-06-15T02:07:53.978Z,33.28
2019-06-15T02:08:26.982Z,33.18
2019-06-15T02:09:00.009Z,33.65
2019-06-15T02:09:32.888Z,33.63
2019-06-15T02:10:07.273Z,33.00
2019-06-15T02:10:40.356Z,33.48
2019-06-15T02:11:13.410Z,33.30
2019-06-15T02:11:46.369Z,33.50
2019-06-15T02:12:19.393Z,33.33
2019-06-15T02:12:52.297Z,33.40
2019-06-15T02:13:25.334Z,33.80
2019-06-15T02:13:58.427Z,33.70
2019-06-15T02:14:31.408Z,33.75
2019-06-15T02:15:04.977Z,33.85
2019-06-15T02:15:37.878Z,33.85
2019-06-15T02:16:11.936Z,33.95
2019-06-15T02:16:44.891Z,33.83
2019-06-15T02:17:18.038Z,34.27
2019-06-15T02:17:51.008Z,34.60
2019-06-15T02:18:24.046Z,34.92
2019-06-15T02:18:57.042Z,34.03
2019-06-15T02:19:30.017Z,34.20
2019-06-15T02:20:03.869Z,34.30
2019-06-15T02:20:36.861Z,34.13
2019-06-15T02:21:09.960Z,35.03
2019-06-15T02:21:43.118Z,34.60
2019-06-15T02:22:16.027Z,34.53
2019-06-15T02:22:49.121Z,34.53
2019-06-15T02:23:22.138Z,34.85
2019-06-15T02:23:55.131Z,34.70
2019-06-15T02:24:27.951Z,34.60
2019-06-15T02:25:01.002Z,34.78
2019-06-15T02:25:36.224Z,34.70
2019-06-15T02:26:08.789Z,34.70
2019-06-15T02:26:41.723Z,34.43
2019-06-15T02:27:14.727Z,35.30
2019-06-15T02:27:48.393Z,35.92
2019-06-15T02:28:21.536Z,35.63
2019-06-15T02:28:54.454Z,36.37
2019-06-15T02:29:27.574Z,35.20
2019-06-15T02:30:00.535Z,35.25
2019-06-15T02:30:33.946Z,35.10
2019-06-15T02:31:06.973Z,35.25
2019-06-15T02:31:40.818Z,35.05
2019-06-15T02:32:13.727Z,35.43
2019-06-15T02:32:46.620Z,35.58
2019-06-15T02:33:19.463Z,35.60
2019-06-15T02:33:52.298Z,35.90
2019-06-15T02:34:25.826Z,35.70
2019-06-15T02:34:58.847Z,35.95
2019-06-15T02:35:32.015Z,35.92
2019-06-15T02:36:05.049Z,35.63
2019-06-15T02:36:38.085Z,35.58
2019-06-15T02:37:11.110Z,35.50
2019-06-15T02:37:44.018Z,35.75
2019-06-15T02:38:17.153Z,36.33
2019-06-15T02:38:50.279Z,34.98
2019-06-15T02:39:23.388Z,35.65
2019-06-15T02:39:56.429Z,35.80
2019-06-15T02:40:29.451Z,35.65
2019-06-15T02:41:04.682Z,36.30
2019-06-15T02:41:38.020Z,36.30
2019-06-15T02:42:11.088Z,35.92
2019-06-15T02:42:44.138Z,36.90
2019-06-15T02:43:17.256Z,36.63
2019-06-15T02:43:50.315Z,37.05
2019-06-15T02:44:23.413Z,36.33
2019-06-15T02:44:56.543Z,36.80
2019-06-15T02:45:29.448Z,35.92
2019-06-15T02:46:02.657Z,36.80
2019-06-15T02:46:35.627Z,36.90
2019-06-15T02:47:08.733Z,36.63
2019-06-15T02:47:41.721Z,37.00
2019-06-15T02:48:14.909Z,36.68
2019-06-15T02:48:47.913Z,37.42
2019-06-15T02:49:20.836Z,37.00
2019-06-15T02:49:53.838Z,36.58
2019-06-15T02:50:26.918Z,36.95
2019-06-15T02:51:00.093Z,37.15
2019-06-15T02:51:33.361Z,37.63
2019-06-15T02:52:06.488Z,37.30
2019-06-15T02:52:39.541Z,37.42
2019-06-15T02:53:12.540Z,38.05
2019-06-15T02:53:45.709Z,37.78
2019-06-15T02:54:18.629Z,38.23
2019-06-15T02:54:51.827Z,38.78
2019-06-15T02:55:24.945Z,38.40
2019-06-15T02:55:58.058Z,38.60
2019-06-15T02:56:31.056Z,37.60
2019-06-15T02:57:04.273Z,37.73
2019-06-15T02:57:37.384Z,37.53
2019-06-15T02:58:10.425Z,37.83
2019-06-15T02:58:43.407Z,37.58
2019-06-15T02:59:16.445Z,37.23
2019-06-15T02:59:49.452Z,37.55
2019-06-15T03:00:52.463Z,37.85
2019-06-15T03:01:25.489Z,38.08
2019-06-15T03:01:59.240Z,37.48
2019-06-15T03:02:32.250Z,38.67
2019-06-15T03:03:05.345Z,38.63
2019-06-15T03:03:38.357Z,39.15
2019-06-15T03:04:11.291Z,38.38
2019-06-15T03:04:44.310Z,38.58
2019-06-15T03:05:17.347Z,38.88
2019-06-15T03:05:50.873Z,38.60
2019-06-15T03:06:24.248Z,38.40
2019-06-15T03:06:57.236Z,38.78
2019-06-15T03:07:30.502Z,38.50
2019-06-15T03:08:03.891Z,38.63
2019-06-15T03:08:37.558Z,38.65
2019-06-15T03:09:10.533Z,38.48
2019-06-15T03:09:43.851Z,39.18
2019-06-15T03:10:16.991Z,39.23
2019-06-15T03:10:50.324Z,39.53
2019-06-15T03:11:23.356Z,39.58
2019-06-15T03:11:56.414Z,38.63
2019-06-15T03:12:30.080Z,39.50
2019-06-15T03:13:03.261Z,39.42
2019-06-15T03:13:36.471Z,38.95
2019-06-15T03:14:09.531Z,39.73
2019-06-15T03:14:43.862Z,39.30
2019-06-15T03:15:17.265Z,39.65
2019-06-15T03:15:50.302Z,39.70
2019-06-15T03:16:23.260Z,39.60
2019-06-15T03:16:56.407Z,39.75
2019-06-15T03:17:29.360Z,40.10
2019-06-15T03:18:02.244Z,40.20
2019-06-15T03:18:38.589Z,40.08
2019-06-15T03:19:11.516Z,40.20
2019-06-15T03:19:44.599Z,40.48
2019-06-15T03:20:18.941Z,40.78
2019-06-15T03:20:51.956Z,41.30
2019-06-15T03:21:24.855Z,40.92
2019-06-15T03:21:57.829Z,40.52
2019-06-15T03:22:31.031Z,39.88
2019-06-15T03:23:03.977Z,41.68
2019-06-15T03:23:37.536Z,41.15
2019-06-15T03:24:10.451Z,41.23
2019-06-15T03:24:43.365Z,41.33
2019-06-15T03:25:16.499Z,42.25
2019-06-15T03:26:04.417Z,41.13
2019-06-15T03:26:25.047Z,42.00
2019-06-15T03:26:57.964Z,40.83
2019-06-15T03:27:30.900Z,41.15
2019-06-15T03:28:04.025Z,41.13
2019-06-15T03:28:36.852Z,41.50
2019-06-15T03:29:09.759Z,40.85
2019-06-15T03:29:42.690Z,41.58
2019-06-15T03:30:16.347Z,41.05
2019-06-15T03:30:49.273Z,41.45
2019-06-15T03:31:22.181Z,40.90
2019-06-15T03:31:55.156Z,41.77
2019-06-15T03:32:28.230Z,40.43
2019-06-15T03:33:01.287Z,40.80
2019-06-15T03:33:34.263Z,40.40
2019-06-15T03:34:07.201Z,40.63
2019-06-15T03:34:41.426Z,41.25
2019-06-15T03:35:15.651Z,40.28
2019-06-15T03:35:48.596Z,40.43
2019-06-15T03:36:21.566Z,40.15
2019-06-15T03:36:54.554Z,40.60
2019-06-15T03:37:27.562Z,39.85
2019-06-15T03:38:00.615Z,41.42
2019-06-15T03:38:33.667Z,41.75
2019-06-15T03:39:06.780Z,41.65
2019-06-15T03:39:39.802Z,41.65
2019-06-15T03:40:13.312Z,41.28
2019-06-15T03:40:46.271Z,41.83
2019-06-15T03:41:19.334Z,40.78
2019-06-15T03:41:52.382Z,42.80
2019-06-15T03:42:25.403Z,41.75
2019-06-15T03:42:58.458Z,42.45
2019-06-15T03:43:31.584Z,41.90
2019-06-15T03:44:04.646Z,41.53
2019-06-15T03:44:37.688Z,41.92
2019-06-15T03:45:11.114Z,41.42
2019-06-15T03:45:44.155Z,42.50
2019-06-15T03:46:17.273Z,41.83
2019-06-15T03:46:50.270Z,42.23
2019-06-15T03:47:23.210Z,42.83
2019-06-15T03:47:56.214Z,42.53
2019-06-15T03:48:29.228Z,43.15
2019-06-15T03:49:02.282Z,44.55
2019-06-15T03:49:35.178Z,43.63
2019-06-15T03:50:08.504Z,44.03
2019-06-15T03:50:41.519Z,43.87
2019-06-15T03:51:14.424Z,43.13
2019-06-15T03:51:47.472Z,42.80
2019-06-15T03:52:20.478Z,43.13
2019-06-15T03:52:53.506Z,42.53
2019-06-15T03:53:26.518Z,41.40
2019-06-15T03:53:59.489Z,42.30
2019-06-15T03:54:32.596Z,41.08
2019-06-15T03:55:05.739Z,41.45
2019-06-15T03:55:40.590Z,41.95
2019-06-15T03:56:21.466Z,42.08
2019-06-15T03:56:48.346Z,41.95
2019-06-15T03:57:21.338Z,42.43
2019-06-15T03:57:54.350Z,42.50
2019-06-15T03:58:28.394Z,41.60
2019-06-15T03:59:01.266Z,41.08
2019-06-15T03:59:34.490Z,41.37
2019-06-15T04:00:43.984Z,41.60
2019-06-15T04:01:30.978Z,41.70
2019-06-15T04:02:04.144Z,42.45
2019-06-15T04:02:37.061Z,41.35
2019-06-15T04:03:10.001Z,41.40
2019-06-15T04:03:43.014Z,41.08
2019-06-15T04:04:16.605Z,41.58
2019-06-15T04:04:52.299Z,41.30
2019-06-15T04:05:24.470Z,41.37
2019-06-15T04:05:57.576Z,41.25
2019-06-15T04:06:30.961Z,41.80
2019-06-15T04:07:04.090Z,40.58
2019-06-15T04:07:36.988Z,41.53
2019-06-15T04:08:10.099Z,41.50
2019-06-15T04:08:43.213Z,41.42
2019-06-15T04:09:16.456Z,41.70
2019-06-15T04:09:49.413Z,41.88
2019-06-15T04:10:22.530Z,42.08
2019-06-15T04:10:55.642Z,42.00
2019-06-15T04:11:28.818Z,40.78
2019-06-15T04:12:03.022Z,41.35
2019-06-15T04:12:37.693Z,39.88
2019-06-15T04:13:10.849Z,42.40
2019-06-15T04:13:43.913Z,42.55
2019-06-15T04:14:17.347Z,43.85
2019-06-15T04:14:50.331Z,43.13
2019-06-15T04:15:23.408Z,42.13
2019-06-15T04:15:56.543Z,42.75
2019-06-15T04:16:29.473Z,43.15
2019-06-15T04:17:02.589Z,43.45
2019-06-15T04:17:35.501Z,43.42
2019-06-15T04:18:08.555Z,45.00
2019-06-15T04:18:41.548Z,43.87
2019-06-15T04:19:14.728Z,44.75
2019-06-15T04:19:47.674Z,45.28
2019-06-15T04:20:22.149Z,44.60
2019-06-15T04:20:55.149Z,45.60
2019-06-15T04:21:28.217Z,46.10
2019-06-15T04:22:01.353Z,47.40
2019-06-15T04:22:34.311Z,46.25
2019-06-15T04:23:07.412Z,47.15
2019-06-15T04:23:40.464Z,46.77
2019-06-15T04:24:13.651Z,47.67
2019-06-15T04:24:46.531Z,47.55
2019-06-15T04:25:19.561Z,49.05
2019-06-15T04:25:52.644Z,48.10
2019-06-15T04:26:35.614Z,48.45
2019-06-15T04:27:00.728Z,47.20
2019-06-15T04:27:33.856Z,48.95
2019-06-15T04:28:06.942Z,49.60
2019-06-15T04:28:39.917Z,50.80
2019-06-15T04:29:12.924Z,51.48
2019-06-15T04:29:45.915Z,51.23
2019-06-15T04:30:19.310Z,51.05
2019-06-15T04:30:52.956Z,50.88
2019-06-15T04:31:26.018Z,52.55
2019-06-15T04:31:58.967Z,52.70
2019-06-15T04:32:31.954Z,52.00
2019-06-15T04:33:05.182Z,52.00
2019-06-15T04:33:38.054Z,53.30
2019-06-15T04:34:11.096Z,52.23
2019-06-15T04:34:44.078Z,53.73
2019-06-15T04:35:17.149Z,55.90
2019-06-15T04:35:50.334Z,54.65
2019-06-15T04:36:23.595Z,59.23
2019-06-15T04:36:57.863Z,57.90
2019-06-15T04:37:30.774Z,54.27
2019-06-15T04:38:04.064Z,55.20
2019-06-15T04:38:36.956Z,55.70
2019-06-15T04:39:10.140Z,55.23
2019-06-15T04:39:43.231Z,54.80
2019-06-15T04:40:16.418Z,53.63
2019-06-15T04:40:49.380Z,56.30
2019-06-15T04:41:22.860Z,53.75
2019-06-15T04:41:55.965Z,58.05
2019-06-15T04:42:29.114Z,49.60
2019-06-15T04:43:02.232Z,52.08
2019-06-15T04:43:35.393Z,50.58
2019-06-15T04:44:08.299Z,50.73
2019-06-15T04:44:41.268Z,49.40
2019-06-15T04:45:14.485Z,50.63
2019-06-15T04:45:47.526Z,49.03
2019-06-15T04:46:20.603Z,45.10
2019-06-15T04:46:53.699Z,45.63
2019-06-15T04:47:27.126Z,42.50
2019-06-15T04:48:00.226Z,42.73
2019-06-15T04:48:33.359Z,41.98
2019-06-15T04:49:06.306Z,43.30
2019-06-15T04:49:39.302Z,47.05
2019-06-15T04:50:12.589Z,45.65
2019-06-15T04:50:45.584Z,45.00
2019-06-15T04:51:18.656Z,46.13
2019-06-15T04:51:51.818Z,46.60
2019-06-15T04:52:24.760Z,44.77
2019-06-15T04:52:57.798Z,45.78
2019-06-15T04:53:30.673Z,42.38
2019-06-15T04:54:04.038Z,44.00
2019-06-15T04:54:37.144Z,45.17
2019-06-15T04:55:10.783Z,44.75
2019-06-15T04:55:43.952Z,47.50
2019-06-15T04:56:16.922Z,46.13
2019-06-15T04:56:51.214Z,46.13
2019-06-15T04:57:24.483Z,44.73
2019-06-15T04:57:57.528Z,43.98
2019-06-15T04:58:30.599Z,42.80
2019-06-15T04:59:03.662Z,43.90
2019-06-15T04:59:36.681Z,46.13
2019-06-15T05:00:10.435Z,46.02
2019-06-15T05:00:43.343Z,42.70
2019-06-15T05:01:17.641Z,43.45
2019-06-15T05:01:50.634Z,42.35
2019-06-15T05:02:27.162Z,42.58
2019-06-15T05:02:58.645Z,42.67
2019-06-15T05:03:31.739Z,43.33
2019-06-15T05:04:04.933Z,43.75
2019-06-15T05:04:37.999Z,44.77
2019-06-15T05:05:11.516Z,43.73
2019-06-15T05:05:44.712Z,45.52
2019-06-15T05:06:17.648Z,43.13
2019-06-15T05:06:50.707Z,45.17
2019-06-15T05:07:23.806Z,42.88
2019-06-15T05:07:57.388Z,46.60
2019-06-15T05:08:30.290Z,45.50
2019-06-15T05:09:05.727Z,46.75
2019-06-15T05:09:38.630Z,47.98
2019-06-15T05:10:11.856Z,44.33
2019-06-15T05:10:44.873Z,45.83
2019-06-15T05:11:18.086Z,44.80
2019-06-15T05:11:51.119Z,43.58
2019-06-15T05:12:24.210Z,46.42
2019-06-15T05:12:57.364Z,45.40
2019-06-15T05:13:30.352Z,45.30
2019-06-15T05:14:03.621Z,44.33
2019-06-15T05:14:36.698Z,45.30
2019-06-15T05:15:09.808Z,44.95
2019-06-15T05:15:42.857Z,45.35
2019-06-15T05:16:15.748Z,46.02
2019-06-15T05:16:48.784Z,40.78
2019-06-15T05:17:21.792Z,44.98
2019-06-15T05:17:54.843Z,43.40
2019-06-15T05:18:27.880Z,41.33
2019-06-15T05:19:01.057Z,41.83
2019-06-15T05:19:34.246Z,40.63
2019-06-15T05:20:08.958Z,45.12
2019-06-15T05:20:42.064Z,42.70
2019-06-15T05:21:15.218Z,41.02
2019-06-15T05:21:48.213Z,39.63
2019-06-15T05:22:21.402Z,39.33
2019-06-15T05:22:54.544Z,40.95
2019-06-15T05:23:27.478Z,40.05
2019-06-15T05:24:00.593Z,39.10
2019-06-15T05:24:33.566Z,40.05
2019-06-15T05:25:07.620Z,39.85
2019-06-15T05:25:40.661Z,39.73
2019-06-15T05:26:13.590Z,40.67
2019-06-15T05:26:46.542Z,39.85
2019-06-15T05:27:19.455Z,39.73
2019-06-15T05:27:52.390Z,42.15
2019-06-15T05:28:25.335Z,42.27
2019-06-15T05:28:58.403Z,42.55
2019-06-15T05:29:31.306Z,43.30
2019-06-15T05:30:05.548Z,44.77
2019-06-15T05:30:38.664Z,43.60
2019-06-15T05:31:11.636Z,43.98
2019-06-15T05:31:44.654Z,43.85
2019-06-15T05:32:17.710Z,44.20
2019-06-15T05:32:50.726Z,44.83
2019-06-15T05:33:23.802Z,44.88
2019-06-15T05:33:56.822Z,45.48
2019-06-15T05:34:29.875Z,44.58
2019-06-15T05:35:03.618Z,45.15
2019-06-15T05:35:36.637Z,43.65
2019-06-15T05:36:09.564Z,44.48
2019-06-15T05:36:42.552Z,44.58
2019-06-15T05:37:16.887Z,44.35
2019-06-15T05:37:49.826Z,44.65
2019-06-15T05:38:22.763Z,44.80
2019-06-15T05:38:55.734Z,44.23
2019-06-15T05:39:28.666Z,44.67
2019-06-15T05:40:01.880Z,45.05
2019-06-15T05:40:34.888Z,45.65
2019-06-15T05:41:09.174Z,44.83
2019-06-15T05:41:42.209Z,45.05
2019-06-15T05:42:15.119Z,44.15
2019-06-15T05:42:48.150Z,44.27
2019-06-15T05:43:21.247Z,44.10
2019-06-15T05:43:54.259Z,43.98
2019-06-15T05:44:29.082Z,41.60
2019-06-15T05:45:02.107Z,42.62
2019-06-15T05:45:35.222Z,41.77
2019-06-15T05:46:08.445Z,41.18
2019-06-15T05:46:41.316Z,41.37
2019-06-15T05:47:14.424Z,40.12
2019-06-15T05:47:47.502Z,39.78
2019-06-15T05:48:20.402Z,40.58
2019-06-15T05:48:53.512Z,38.58
2019-06-15T05:49:27.353Z,40.15
2019-06-15T05:50:00.368Z,39.90
2019-06-15T05:50:33.295Z,39.48
2019-06-15T05:51:06.180Z,39.48
2019-06-15T05:51:39.222Z,40.30
2019-06-15T05:52:12.259Z,41.18
2019-06-15T05:52:45.274Z,40.60
2019-06-15T05:53:18.333Z,41.08
2019-06-15T05:53:51.258Z,40.33
2019-06-15T05:54:24.110Z,38.80
2019-06-15T05:54:57.042Z,40.65
2019-06-15T05:55:30.100Z,40.50
2019-06-15T05:56:03.481Z,40.17
2019-06-15T05:56:36.593Z,41.02
2019-06-15T05:57:21.157Z,41.33
2019-06-15T05:57:44.532Z,40.85
2019-06-15T05:58:17.438Z,40.23
2019-06-15T05:58:50.298Z,40.52
2019-06-15T05:59:23.213Z,41.15
2019-06-15T05:59:56.412Z,41.35
2019-06-15T06:00:29.593Z,42.53
2019-06-15T06:01:02.658Z,42.67
2019-06-15T06:01:35.605Z,42.25
2019-06-15T06:02:08.897Z,42.08
2019-06-15T06:02:41.786Z,42.27
2019-06-15T06:03:14.842Z,42.58
2019-06-15T06:03:47.930Z,42.85
2019-06-15T06:04:21.042Z,40.88
2019-06-15T06:04:54.179Z,39.58
2019-06-15T06:05:27.230Z,40.03
2019-06-15T06:06:00.298Z,39.45
2019-06-15T06:06:33.382Z,38.00
2019-06-15T06:07:06.486Z,38.53
2019-06-15T06:07:39.564Z,38.67
2019-06-15T06:08:12.629Z,38.38
2019-06-15T06:08:45.495Z,39.35
2019-06-15T06:09:18.650Z,37.85
2019-06-15T06:09:51.788Z,40.08
2019-06-15T06:10:24.938Z,39.58
2019-06-15T06:10:58.020Z,39.90
2019-06-15T06:11:31.004Z,39.63
2019-06-15T06:12:04.229Z,39.18
2019-06-15T06:12:37.388Z,40.40
2019-06-15T06:13:10.643Z,39.33
2019-06-15T06:13:43.650Z,40.78
2019-06-15T06:14:17.794Z,41.33
2019-06-15T06:14:50.830Z,41.45
2019-06-15T06:15:26.718Z,41.15
2019-06-15T06:15:58.753Z,42.33
2019-06-15T06:16:31.826Z,41.60
2019-06-15T06:17:05.005Z,41.33
2019-06-15T06:17:38.067Z,40.43
2019-06-15T06:18:11.146Z,40.30
2019-06-15T06:18:44.116Z,41.53
2019-06-15T06:19:17.280Z,38.63
2019-06-15T06:19:50.468Z,41.10
2019-06-15T06:20:23.485Z,41.88
2019-06-15T06:20:56.553Z,40.33
2019-06-15T06:21:29.666Z,42.05
2019-06-15T06:22:02.752Z,40.58
2019-06-15T06:22:35.818Z,41.75
2019-06-15T06:23:09.035Z,40.20
2019-06-15T06:23:42.051Z,39.40
2019-06-15T06:24:15.208Z,41.10
2019-06-15T06:24:48.342Z,40.28
2019-06-15T06:25:21.515Z,41.28
2019-06-15T06:25:54.653Z,39.88
2019-06-15T06:26:28.635Z,37.75
2019-06-15T06:27:04.065Z,37.98
2019-06-15T06:27:37.372Z,37.85
2019-06-15T06:28:11.611Z,37.53
2019-06-15T06:28:56.795Z,37.55
2019-06-15T06:29:20.403Z,38.88
2019-06-15T06:29:53.560Z,38.58
2019-06-15T06:30:29.963Z,37.78
2019-06-15T06:31:01.706Z,37.25
2019-06-15T06:31:34.898Z,36.53
2019-06-15T06:32:08.200Z,36.77
2019-06-15T06:32:41.357Z,37.78
2019-06-15T06:33:15.662Z,38.92
2019-06-15T06:33:48.920Z,38.30
2019-06-15T06:34:21.904Z,38.70
2019-06-15T06:34:55.095Z,38.75
2019-06-15T06:35:28.268Z,38.05
2019-06-15T06:36:01.462Z,38.63
2019-06-15T06:36:34.567Z,39.80
2019-06-15T06:37:07.605Z,38.83
2019-06-15T06:37:40.687Z,37.90
2019-06-15T06:38:13.742Z,37.45
2019-06-15T06:38:46.708Z,38.02
2019-06-15T06:39:19.961Z,40.45
2019-06-15T06:39:53.062Z,38.67
2019-06-15T06:40:26.148Z,40.23
2019-06-15T06:40:59.242Z,40.33
2019-06-15T06:41:32.454Z,39.35
2019-06-15T06:42:05.534Z,38.78
2019-06-15T06:42:39.100Z,37.73
2019-06-15T06:43:12.188Z,38.58
2019-06-15T06:43:45.242Z,37.33
2019-06-15T06:44:18.459Z,36.50
2019-06-15T06:44:51.423Z,37.20
2019-06-15T06:45:24.634Z,38.85
2019-06-15T06:45:57.581Z,38.02
2019-06-15T06:46:30.728Z,37.48
2019-06-15T06:47:04.011Z,37.95
2019-06-15T06:47:37.055Z,37.45
2019-06-15T06:48:10.313Z,37.65
2019-06-15T06:48:43.382Z,38.17
2019-06-15T06:49:16.504Z,38.67
2019-06-15T06:49:49.343Z,38.95
2019-06-15T06:50:22.645Z,38.85
2019-06-15T06:50:55.644Z,38.90
2019-06-15T06:51:28.719Z,39.60
2019-06-15T06:52:01.684Z,39.63
2019-06-15T06:52:34.703Z,39.67
2019-06-15T06:53:07.720Z,39.15
2019-06-15T06:53:40.649Z,39.92
2019-06-15T06:54:13.604Z,40.15
2019-06-15T06:54:46.640Z,40.52
2019-06-15T06:55:19.773Z,41.00
2019-06-15T06:55:52.606Z,39.95
2019-06-15T06:56:25.662Z,41.50
2019-06-15T06:56:59.112Z,40.65
2019-06-15T06:57:32.242Z,40.45
2019-06-15T06:58:05.156Z,41.25
2019-06-15T06:58:38.133Z,41.15
2019-06-15T06:59:11.288Z,40.58
2019-06-15T06:59:46.910Z,41.37
2019-06-15T07:00:20.507Z,40.03
2019-06-15T07:00:54.698Z,40.35
2019-06-15T07:01:28.050Z,41.00
2019-06-15T07:02:01.112Z,40.55
2019-06-15T07:02:34.222Z,39.55
2019-06-15T07:03:07.317Z,39.05
2019-06-15T07:03:40.462Z,39.88
2019-06-15T07:04:13.478Z,38.30
2019-06-15T07:04:46.597Z,37.93
2019-06-15T07:05:19.616Z,37.98
2019-06-15T07:05:52.636Z,38.25
2019-06-15T07:06:26.020Z,37.00
2019-06-15T07:06:59.072Z,36.77
2019-06-15T07:07:32.140Z,36.48
2019-06-15T07:08:05.241Z,37.17
2019-06-15T07:08:38.366Z,36.13
2019-06-15T07:09:11.594Z,36.90